Time;durP1;ratioP1;P1;durP2;ratioP2;P2;SDS_P1;SDS_P2;PMS_P1;PMS_P2;Temp;Humidity;BMP_temperature;BMP_pressure;BME280_temperature;BME280_humidity;BME280_pressure;Samples;Min_cycle;Max_cycle;Signal;HPM_P1;HPM_P2
2022/10/24 00:01:22;;;;;;;6.18;4.03;;;;;;;14.72;47.69;100243.56;5010253;28;20026;-81
2022/10/24 00:03:48;;;;;;;6.15;3.70;;;;;;;14.98;47.85;100249.19;5011476;28;20105;-81
2022/10/24 00:06:14;;;;;;;4.97;3.78;;;;;;;14.98;47.70;100245.72;5011288;28;20383;-81
2022/10/24 00:08:41;;;;;;;4.65;4.15;;;;;;;15.00;47.60;100247.19;5010142;28;20072;-81
2022/10/24 00:11:27;;;;;;;6.68;4.40;;;;;;;14.88;47.59;100238.88;5010179;28;20045;-81
2022/10/24 00:13:54;;;;;;;6.65;3.97;;;;;;;14.57;47.31;100188.63;5011323;28;20044;-81
2022/10/24 00:16:20;;;;;;;5.00;4.18;;;;;;;14.93;47.87;100246.28;5009788;28;20014;-81
2022/10/24 00:18:46;;;;;;;5.00;4.10;;;;;;;13.66;47.52;100061.69;5011298;28;20022;-82
2022/10/24 00:21:12;;;;;;;7.50;4.28;;;;;;;14.50;47.88;100198.38;5010127;28;20076;-81
2022/10/24 00:23:38;;;;;;;6.82;4.32;;;;;;;13.77;47.85;100079.78;5010086;28;20022;-81
2022/10/24 00:26:04;;;;;;;6.07;3.97;;;;;;;14.80;47.74;100252.25;5011321;28;20021;-81
2022/10/24 00:28:31;;;;;;;5.05;3.95;;;;;;;14.61;47.52;100218.31;5011720;28;20029;-81
2022/10/24 00:30:57;;;;;;;7.68;4.85;;;;;;;13.89;47.41;100096.06;5011188;28;20026;-82
2022/10/24 00:33:23;;;;;;;5.20;3.67;;;;;;;13.89;47.76;100099.53;5011212;28;20029;-81
2022/10/24 00:35:48;;;;;;;6.50;4.28;;;;;;;14.27;47.51;100149.84;5011010;28;20022;-81
2022/10/24 00:38:13;;;;;;;4.78;3.85;;;;;;;13.98;47.48;100109.03;5010890;28;20084;-81
2022/10/24 00:40:40;;;;;;;6.05;4.00;;;;;;;14.81;47.52;100243.28;5009970;28;20415;-81
2022/10/24 00:43:13;;;;;;;5.20;4.28;;;;;;;14.80;47.61;100251.44;5011187;28;20076;-81
2022/10/24 00:45:45;;;;;;;5.97;3.90;;;;;;;14.80;47.51;100240.81;5011188;28;20101;-81
2022/10/24 00:48:20;;;;;;;5.03;3.80;;;;;;;14.48;47.58;100192.41;5011899;28;20041;-81
2022/10/24 00:50:48;;;;;;;5.10;3.63;;;;;;;12.83;47.40;99921.44;5014550;28;20033;-81
2022/10/24 00:53:14;;;;;;;4.22;3.83;;;;;;;14.22;47.58;100150.41;5014458;28;20028;-81
2022/10/24 00:55:42;;;;;;;5.68;4.18;;;;;;;14.45;47.66;100214.03;5014376;28;20030;-81
2022/10/24 00:58:08;;;;;;;6.80;4.22;;;;;;;14.37;47.51;100173.44;5013110;28;20060;-81
2022/10/24 01:00:34;;;;;;;7.35;4.25;;;;;;;14.05;47.72;100169.34;5014521;28;20033;-81
2022/10/24 01:03:01;;;;;;;6.07;4.30;;;;;;;14.34;47.89;100190.59;5014301;28;20402;-81
2022/10/24 01:05:34;;;;;;;5.05;3.83;;;;;;;14.10;47.78;100151.03;5014476;28;20060;-81
2022/10/24 01:08:06;;;;;;;4.70;3.47;;;;;;;14.65;48.30;100232.88;5014199;28;20614;-81
2022/10/24 01:10:45;;;;;;;4.38;3.78;;;;;;;14.29;47.94;100177.88;5014454;28;20032;-81
2022/10/24 01:13:31;;;;;;;4.90;3.90;;;;;;;14.66;47.79;100225.72;5013020;28;20036;-81
2022/10/24 01:16:02;;;;;;;5.63;4.28;;;;;;;14.61;47.95;100235.06;5012763;28;20026;-81
2022/10/24 01:18:58;;;;;;;5.05;4.00;;;;;;;14.33;47.61;100212.84;5014145;28;20109;-81
2022/10/24 01:21:38;;;;;;;4.85;4.28;;;;;;;14.06;47.90;100163.88;5013728;28;20038;-81
2022/10/24 01:24:24;;;;;;;5.78;3.90;;;;;;;14.54;47.75;100233.34;5013876;28;20033;-81
2022/10/24 01:26:59;;;;;;;6.50;4.07;;;;;;;14.52;47.80;100232.72;5012684;28;20028;-81
2022/10/24 01:29:45;;;;;;;5.28;4.25;;;;;;;14.46;47.96;100225.50;5014133;28;20029;-81
2022/10/24 01:32:33;;;;;;;6.13;4.15;;;;;;;13.74;48.04;100129.75;5013979;28;20046;-81
2022/10/24 01:35:13;;;;;;;5.45;4.05;;;;;;;14.34;48.21;100219.81;5013969;28;20028;-81
2022/10/24 01:38:00;;;;;;;7.97;4.22;;;;;;;14.38;48.00;100213.09;5012445;28;20045;-81
2022/10/24 01:40:34;;;;;;;4.68;3.92;;;;;;;14.34;47.96;100219.81;5013597;28;20513;-81
2022/10/24 01:43:08;;;;;;;4.35;3.58;;;;;;;14.36;47.71;100222.28;5013822;28;20103;-81
2022/10/24 01:45:36;;;;;;;6.20;4.32;;;;;;;13.54;47.86;100095.00;5013664;28;20021;-81
2022/10/24 01:48:06;;;;;;;4.65;4.05;;;;;;;14.08;47.88;100209.66;5013550;28;20037;-81
2022/10/24 01:50:35;;;;;;;6.47;4.28;;;;;;;13.93;47.92;100185.75;5013414;28;20018;-81
2022/10/24 01:53:01;;;;;;;5.35;3.80;;;;;;;13.83;47.77;100200.31;5011997;28;20117;-81
2022/10/24 01:55:30;;;;;;;5.60;4.03;;;;;;;13.52;47.49;100115.59;5011933;28;20026;-81
2022/10/24 01:57:55;;;;;;;4.35;3.95;;;;;;;13.75;47.66;100152.63;5013450;28;20022;-81
2022/10/24 02:00:22;;;;;;;7.13;4.57;;;;;;;12.67;47.57;99970.94;5012513;28;20133;-81
2022/10/24 02:02:54;;;;;;;4.57;3.63;;;;;;;13.70;47.60;100161.16;5013431;28;20026;-81
2022/10/24 02:05:41;;;;;;;6.30;3.92;;;;;;;14.20;47.53;100224.13;5011984;28;20029;-81
2022/10/24 02:08:10;;;;;;;7.47;3.92;;;;;;;13.92;47.48;100185.94;5013058;28;20046;-81
2022/10/24 02:10:47;;;;;;;5.82;4.03;;;;;;;13.59;47.54;100149.16;5013071;28;20103;-81
2022/10/24 02:13:26;;;;;;;4.63;3.75;;;;;;;13.07;47.61;100071.41;5013234;28;20017;-81
2022/10/24 02:15:55;;;;;;;4.15;3.60;;;;;;;13.41;47.83;100114.22;5011771;28;20099;-81
2022/10/24 02:18:21;;;;;;;5.43;3.75;;;;;;;13.54;47.78;100137.44;5011863;28;20478;-81
2022/10/24 02:20:54;;;;;;;6.15;4.03;;;;;;;13.68;48.01;100171.13;5011827;28;20022;-81
2022/10/24 02:23:33;;;;;;;7.28;3.97;;;;;;;13.63;47.83;100168.19;5012994;28;20491;-81
2022/10/24 02:26:01;;;;;;;7.63;4.20;;;;;;;13.19;47.59;100097.34;5012708;28;20458;-81
2022/10/24 02:28:37;;;;;;;6.95;4.32;;;;;;;13.46;47.55;100148.16;5012724;28;20176;-81
2022/10/24 02:31:11;;;;;;;4.85;4.10;;;;;;;14.08;47.56;100238.84;5012781;28;20064;-81
2022/10/24 02:33:39;;;;;;;7.22;4.40;;;;;;;13.52;47.63;100134.97;5012760;28;20184;-81
2022/10/24 02:36:07;;;;;;;6.35;4.45;;;;;;;13.87;47.84;100212.22;5011372;28;20554;-81
2022/10/24 02:38:38;;;;;;;7.85;4.35;;;;;;;14.04;47.90;100240.22;5012853;28;20033;-81
2022/10/24 02:41:07;;;;;;;9.07;4.28;;;;;;;13.90;48.13;100233.09;5012806;28;20026;-81
2022/10/24 02:43:34;;;;;;;9.10;4.20;;;;;;;13.74;48.22;100204.88;5012860;28;20022;-81
2022/10/24 02:46:02;;;;;;;10.48;4.90;;;;;;;13.99;48.26;100226.69;5012830;28;20038;-81
2022/10/24 02:48:33;;;;;;;6.30;3.80;;;;;;;13.65;48.13;100195.38;5012525;28;20495;-81
2022/10/24 02:50:59;;;;;;;5.78;4.43;;;;;;;13.27;48.19;100131.72;5010993;28;20026;-81
2022/10/24 02:53:25;;;;;;;7.88;4.28;;;;;;;13.43;48.09;100156.47;5011061;28;20041;-81
2022/10/24 02:55:51;;;;;;;8.32;4.57;;;;;;;14.00;48.02;100260.19;5012359;28;20029;-81
2022/10/24 02:58:17;;;;;;;7.10;4.10;;;;;;;13.88;48.22;100283.69;5012459;28;20526;-81
2022/10/24 03:00:42;;;;;;;6.82;4.80;;;;;;;13.80;48.24;100259.06;5010857;28;20026;-81
2022/10/24 03:03:08;;;;;;;4.28;3.88;;;;;;;13.73;48.57;100256.31;5010783;28;20097;-81
2022/10/24 03:05:33;;;;;;;4.97;4.22;;;;;;;13.10;48.40;100158.53;5011984;28;20557;-81
2022/10/24 03:07:59;;;;;;;5.00;4.05;;;;;;;12.71;48.42;100103.88;5011976;28;20613;-80
2022/10/24 03:10:24;;;;;;;5.60;3.90;;;;;;;12.84;48.62;100156.28;5011907;28;20026;-81
2022/10/24 03:12:50;;;;;;;6.28;3.65;;;;;;;12.80;49.06;100149.69;5011929;28;20041;-81
2022/10/24 03:15:15;;;;;;;5.07;3.55;;;;;;;12.24;48.92;100049.25;5010529;28;20105;-81
2022/10/24 03:17:41;;;;;;;5.43;3.90;;;;;;;11.78;49.05;99977.75;5011945;28;20032;-81
2022/10/24 03:20:07;;;;;;;6.10;4.00;;;;;;;13.08;48.96;100190.53;5012032;28;20026;-81
2022/10/24 03:22:32;;;;;;;8.70;4.20;;;;;;;13.09;48.95;100197.50;5012539;28;20033;-81
2022/10/24 03:25:01;;;;;;;6.28;4.78;;;;;;;13.33;48.77;100215.88;5011313;28;20022;-81
2022/10/24 03:27:27;;;;;;;5.45;4.20;;;;;;;13.21;48.89;100195.25;5011858;28;20113;-81
2022/10/24 03:29:52;;;;;;;6.95;4.18;;;;;;;12.59;48.64;100094.66;5012125;28;20049;-81
2022/10/24 03:32:18;;;;;;;5.68;3.92;;;;;;;12.93;49.08;100156.03;5011955;28;20026;-81
2022/10/24 03:34:43;;;;;;;7.63;4.30;;;;;;;12.78;48.85;100141.09;5010763;28;20018;-80
2022/10/24 03:37:09;;;;;;;6.47;4.20;;;;;;;12.57;48.96;100097.50;5010639;28;20061;-81
2022/10/24 03:39:34;;;;;;;4.97;3.97;;;;;;;12.74;48.97;100132.66;5011711;28;20033;-81
2022/10/24 03:41:59;;;;;;;6.10;4.03;;;;;;;12.58;48.91;100109.75;5011564;28;20403;-81
2022/10/24 03:44:25;;;;;;;6.80;4.60;;;;;;;12.66;48.88;100154.75;5011554;28;20026;-81
2022/10/24 03:46:50;;;;;;;8.15;4.65;;;;;;;13.03;48.59;100203.50;5011646;28;20018;-81
2022/10/24 03:49:16;;;;;;;5.78;4.78;;;;;;;12.51;48.73;100132.63;5010481;28;20026;-81
2022/10/24 03:51:41;;;;;;;8.13;4.80;;;;;;;13.17;49.05;100241.69;5010228;28;20041;-81
2022/10/24 03:54:06;;;;;;;7.30;4.35;;;;;;;13.17;49.11;100239.06;5011583;28;20022;-81
2022/10/24 03:56:32;;;;;;;5.95;4.75;;;;;;;11.87;48.98;100049.94;5011448;28;20084;-81
2022/10/24 03:58:57;;;;;;;7.57;5.18;;;;;;;12.90;48.98;100203.28;5011548;28;20021;-81
2022/10/24 04:01:23;;;;;;;5.55;4.60;;;;;;;12.84;49.23;100201.31;5010264;28;20054;-81
2022/10/24 04:03:49;;;;;;;7.57;4.50;;;;;;;12.31;48.91;100119.03;5011538;28;20022;-81
2022/10/24 04:06:14;;;;;;;7.47;4.70;;;;;;;13.14;49.06;100237.53;5011110;28;20087;-81
2022/10/24 04:08:40;;;;;;;6.15;4.80;;;;;;;13.26;48.80;100256.53;5011218;28;20026;-81
2022/10/24 04:11:06;;;;;;;6.22;5.10;;;;;;;13.29;48.97;100257.00;5009909;28;20052;-81
2022/10/24 04:13:32;;;;;;;7.63;4.82;;;;;;;13.29;49.35;100250.88;5011281;28;20392;-81
2022/10/24 04:15:58;;;;;;;6.03;4.65;;;;;;;13.29;49.15;100250.88;5011332;28;20022;-81
2022/10/24 04:18:23;;;;;;;6.57;4.60;;;;;;;12.31;49.20;100108.44;5011346;28;20565;-81
2022/10/24 04:20:49;;;;;;;7.00;5.20;;;;;;;12.32;49.27;100103.97;5011431;28;20406;-81
2022/10/24 04:23:14;;;;;;;6.80;5.25;;;;;;;12.96;49.37;100210.50;5013534;28;20487;-81
2022/10/24 04:25:40;;;;;;;7.80;5.30;;;;;;;12.68;49.54;100165.16;5015226;28;20018;-81
2022/10/24 04:28:05;;;;;;;13.63;5.38;;;;;;;10.95;49.85;99905.25;5013777;28;20084;-81
2022/10/24 04:30:31;;;;;;;7.93;6.40;;;;;;;12.35;49.99;100178.59;5015137;28;20033;-81
2022/10/24 04:32:57;;;;;;;8.45;5.97;;;;;;;10.94;49.83;99900.97;5015055;28;20518;-81
2022/10/24 04:35:22;;;;;;;7.60;6.72;;;;;;;12.51;50.00;100143.25;5014796;28;20018;-81
2022/10/24 04:37:48;;;;;;;13.13;7.68;;;;;;;11.46;49.74;99991.94;5013537;28;20025;-81
2022/10/24 04:40:13;;;;;;;14.68;7.15;;;;;;;13.12;49.73;100244.84;5014915;28;20105;-81
2022/10/24 04:42:39;;;;;;;10.73;6.43;;;;;;;12.78;50.04;100165.75;5014846;28;20387;-81
2022/10/24 04:45:05;;;;;;;13.25;7.10;;;;;;;12.89;49.90;100191.03;5014619;28;20029;-81
2022/10/24 04:47:31;;;;;;;12.48;8.20;;;;;;;12.39;50.03;100129.56;5014428;28;20022;-81
2022/10/24 04:49:56;;;;;;;10.70;7.30;;;;;;;13.15;50.41;100248.97;5013198;28;20017;-81
2022/10/24 04:52:22;;;;;;;10.90;6.50;;;;;;;12.92;49.82;100203.91;5014461;28;20029;-81
2022/10/24 04:54:47;;;;;;;16.02;7.03;;;;;;;12.78;49.91;100186.97;5014446;28;20087;-81
2022/10/24 04:57:13;;;;;;;16.45;7.68;;;;;;;12.76;49.96;100186.31;5014263;28;20084;-81
2022/10/24 04:59:38;;;;;;;13.25;7.93;;;;;;;12.52;49.99;100152.84;5012962;28;20029;-81
2022/10/24 05:02:04;;;;;;;13.05;7.38;;;;;;;12.87;50.11;100214.22;5014206;28;20108;-81
2022/10/24 05:04:29;;;;;;;11.65;6.75;;;;;;;12.42;50.27;100139.00;5014324;28;20046;-81
2022/10/24 05:06:55;;;;;;;12.05;6.93;;;;;;;12.81;50.36;100241.44;5014105;28;20057;-81
2022/10/24 05:09:20;;;;;;;11.90;6.50;;;;;;;11.79;50.50;100068.50;5014359;28;20032;-81
2022/10/24 05:11:46;;;;;;;12.77;7.57;;;;;;;10.39;50.07;99848.97;5014257;28;20498;-81
2022/10/24 05:14:11;;;;;;;15.93;6.75;;;;;;;12.60;50.46;100199.63;5012937;28;20068;-80
2022/10/24 05:16:38;;;;;;;13.50;8.23;;;;;;;12.75;50.48;100231.53;5012308;28;20030;-80
2022/10/24 05:19:04;;;;;;;13.07;6.90;;;;;;;12.78;50.21;100233.81;5014366;28;20026;-80
2022/10/24 05:21:29;;;;;;;12.02;6.90;;;;;;;12.48;50.52;100180.66;5014193;28;20025;-80
2022/10/24 05:23:54;;;;;;;12.95;7.68;;;;;;;12.91;50.29;100276.47;5013972;28;20100;-81
2022/10/24 05:26:20;;;;;;;13.38;8.07;;;;;;;12.70;50.32;100235.53;5011578;28;20071;-81
2022/10/24 05:28:45;;;;;;;13.18;8.05;;;;;;;12.66;50.40;100228.09;5013879;28;20478;-81
2022/10/24 05:31:10;;;;;;;14.65;7.05;;;;;;;12.91;50.20;100271.19;5012259;28;20109;-81
2022/10/24 05:33:36;;;;;;;15.63;8.23;;;;;;;11.96;50.12;100122.22;5012411;28;20494;-81
2022/10/24 05:36:02;;;;;;;13.57;7.28;;;;;;;10.91;50.54;100007.81;5013042;28;20034;-81
2022/10/24 05:38:27;;;;;;;12.60;8.70;;;;;;;12.81;50.60;100295.25;5011395;28;20021;-81
2022/10/24 05:40:53;;;;;;;9.90;7.38;;;;;;;11.77;51.00;100110.16;5013365;28;20052;-81
2022/10/24 05:43:19;;;;;;;13.73;8.23;;;;;;;12.58;50.88;100241.38;5012739;28;20113;-81
2022/10/24 05:45:47;;;;;;;10.77;7.75;;;;;;;12.95;50.93;100283.91;5011359;28;20100;-81
2022/10/24 05:48:12;;;;;;;16.38;8.48;;;;;;;12.07;50.78;100143.81;5008555;28;20446;-81
2022/10/24 05:50:37;;;;;;;14.50;7.55;;;;;;;13.02;50.63;100294.63;5011142;28;20022;-81
2022/10/24 05:53:03;;;;;;;16.20;9.38;;;;;;;12.85;50.68;100253.31;5011098;28;20033;-81
2022/10/24 05:55:30;;;;;;;15.35;9.05;;;;;;;13.10;50.93;100278.66;5011436;28;20030;-81
2022/10/24 05:57:55;;;;;;;20.58;10.63;;;;;;;12.73;50.77;100229.88;5011990;28;20030;-80
2022/10/24 06:00:21;;;;;;;20.08;9.63;;;;;;;12.35;50.15;100138.88;5012259;28;20549;-81
2022/10/24 06:02:47;;;;;;;20.80;10.15;;;;;;;12.94;50.14;100220.47;5012074;28;20030;-81
2022/10/24 06:05:13;;;;;;;19.95;10.98;;;;;;;12.96;50.04;100207.88;5013077;28;20030;-81
2022/10/24 06:07:40;;;;;;;22.85;10.55;;;;;;;13.23;49.94;100249.78;5011969;28;20049;-81
2022/10/24 06:10:07;;;;;;;20.42;11.25;;;;;;;13.52;49.93;100283.53;5012159;28;20117;-80
2022/10/24 06:12:34;;;;;;;15.50;9.75;;;;;;;13.59;49.74;100288.97;5011247;28;20033;-81
2022/10/24 06:15:00;;;;;;;18.52;9.73;;;;;;;13.33;49.96;100237.09;5012582;28;20454;-80
2022/10/24 06:17:26;;;;;;;21.83;10.73;;;;;;;13.18;50.14;100208.88;5022474;28;20022;-81
2022/10/24 06:19:51;;;;;;;22.83;10.43;;;;;;;13.77;49.88;100300.06;5029905;28;20573;-80
2022/10/24 06:22:17;;;;;;;16.40;10.52;;;;;;;13.85;50.11;100301.81;5015355;28;20048;-80
2022/10/24 06:24:43;;;;;;;21.13;12.07;;;;;;;13.62;49.97;100265.53;5011212;28;20406;-81
2022/10/24 06:27:09;;;;;;;21.13;10.48;;;;;;;13.88;50.03;100304.13;5011079;28;20096;-81
2022/10/24 06:29:34;;;;;;;18.67;11.27;;;;;;;13.58;49.98;100226.28;5012344;28;20030;-81
2022/10/24 06:32:00;;;;;;;16.08;10.68;;;;;;;14.12;49.94;100293.28;5012720;28;20565;-81
2022/10/24 06:34:26;;;;;;;14.48;9.98;;;;;;;11.70;49.62;99897.59;5012684;28;20486;-79
2022/10/24 06:36:51;;;;;;;20.42;9.43;;;;;;;13.87;49.63;100238.75;5011053;28;20487;-79
2022/10/24 06:39:17;;;;;;;16.23;9.63;;;;;;;13.85;49.40;100222.19;5011863;28;20034;-80
2022/10/24 06:41:42;;;;;;;16.25;9.15;;;;;;;14.24;49.55;100285.69;5012429;28;20022;-79
2022/10/24 06:44:08;;;;;;;17.80;9.27;;;;;;;14.54;49.71;100315.72;5012111;28;20021;-80
2022/10/24 06:46:33;;;;;;;20.58;10.82;;;;;;;14.39;49.57;100275.88;5011638;28;20025;-80
2022/10/24 06:48:58;;;;;;;23.33;11.70;;;;;;;14.38;49.37;100262.75;5012199;28;20068;-80
2022/10/24 06:51:24;;;;;;;21.52;10.23;;;;;;;14.14;49.29;100208.94;5007229;28;20029;-81
2022/10/24 06:53:50;;;;;;;16.02;10.35;;;;;;;13.99;49.22;100170.91;5009138;28;20557;-80
2022/10/24 06:56:17;;;;;;;16.20;9.55;;;;;;;14.94;49.04;100303.78;5011207;28;20026;-79
2022/10/24 06:58:43;;;;;;;16.17;9.77;;;;;;;14.69;48.99;100259.91;5011026;28;20030;-80
2022/10/24 07:01:11;;;;;;;16.95;10.60;;;;;;;15.13;49.11;100303.16;5011364;28;20041;-81
2022/10/24 07:03:36;;;;;;;18.85;9.98;;;;;;;14.44;48.97;100169.06;5010855;28;20029;-80
2022/10/24 07:06:29;;;;;;;14.63;10.35;;;;;;;15.24;49.14;100289.34;5009978;28;20421;-80
2022/10/24 07:08:57;;;;;;;18.27;11.70;;;;;;;15.38;49.05;100292.97;5010826;28;20053;-80
2022/10/24 07:11:22;;;;;;;20.63;11.57;;;;;;;14.83;48.83;100188.06;5010800;28;20141;-81
2022/10/24 07:13:48;;;;;;;18.60;12.70;;;;;;;15.49;48.81;100279.13;5010029;28;20502;-81
2022/10/24 07:16:14;;;;;;;18.92;11.77;;;;;;;15.19;49.15;100219.94;5011321;28;20018;-80
2022/10/24 07:18:40;;;;;;;20.98;13.73;;;;;;;15.39;49.09;100233.41;5011496;28;20032;-80
2022/10/24 07:21:26;;;;;;;22.05;14.70;;;;;;;15.78;48.88;100288.84;5009765;28;20064;-80
2022/10/24 07:23:53;;;;;;;20.67;14.13;;;;;;;15.87;48.58;100285.03;5011042;28;20109;-80
2022/10/24 07:26:20;;;;;;;23.30;12.93;;;;;;;15.98;48.88;100293.50;5008992;28;20029;-80
2022/10/24 07:28:52;;;;;;;18.23;10.75;;;;;;;15.67;48.47;100214.84;5010787;28;20057;-80
2022/10/24 07:31:17;;;;;;;;;;;;;;;16.01;48.82;100277.94;5010259;28;20041;-80
2022/10/24 07:33:43;;;;;;;13.80;10.55;;;;;;;16.01;48.45;100259.31;5011140;28;20427;-80
2022/10/24 07:36:09;;;;;;;20.40;14.50;;;;;;;16.28;47.97;100273.59;5011024;28;20542;-81
2022/10/24 07:38:34;;;;;;;26.88;16.27;;;;;;;15.67;48.11;100182.91;5011101;28;20036;-81
2022/10/24 07:41:04;;;;;;;20.25;9.88;;;;;;;16.08;47.67;100227.38;5010269;28;20415;-80
2022/10/24 07:43:30;;;;;;;13.02;10.20;;;;;;;16.13;47.82;100219.59;5006156;28;20104;-80
2022/10/24 07:45:55;;;;;;;19.63;13.48;;;;;;;16.46;47.64;100273.91;5010450;28;20018;-80
2022/10/24 07:48:21;;;;;;;15.43;11.55;;;;;;;15.80;47.78;100140.38;5010007;28;20037;-80
2022/10/24 07:50:47;;;;;;;12.27;8.20;;;;;;;16.74;47.42;100297.84;5009420;28;20030;-80
2022/10/24 07:53:13;;;;;;;10.43;8.80;;;;;;;16.87;47.50;100285.56;5009064;28;20491;-79
2022/10/24 07:55:40;;;;;;;12.60;7.22;;;;;;;16.52;47.36;100227.81;5011523;28;20022;-80
2022/10/24 07:58:07;;;;;;;15.45;10.90;;;;;;;16.62;47.35;100216.75;5013161;28;20032;-80
2022/10/24 08:00:33;;;;;;;17.48;7.78;;;;;;;17.09;46.86;100277.25;5015412;28;20063;-81
2022/10/24 08:02:58;;;;;;;8.63;5.88;;;;;;;16.25;46.73;100129.28;5013619;28;20026;-80
2022/10/24 08:05:24;;;;;;;13.98;8.50;;;;;;;17.29;46.64;100308.47;5014186;28;20083;-81
2022/10/24 08:07:50;;;;;;;13.77;5.50;;;;;;;17.39;46.35;100282.22;5015688;28;20089;-80
2022/10/24 08:10:16;;;;;;;5.45;4.65;;;;;;;17.33;46.05;100261.69;5014051;28;20022;-80
2022/10/24 08:12:41;;;;;;;10.80;6.05;;;;;;;17.13;46.13;100202.94;5008789;28;20112;-80
2022/10/24 08:15:07;;;;;;;9.80;5.20;;;;;;;17.36;46.02;100245.25;4998472;28;20105;-80
2022/10/24 08:17:35;;;;;;;5.63;4.20;;;;;;;17.23;45.77;100186.53;5014966;28;20018;-80
2022/10/24 08:20:01;;;;;;;7.63;4.43;;;;;;;17.01;45.54;100151.19;5014902;28;20029;-80
2022/10/24 08:22:26;;;;;;;6.00;4.07;;;;;;;17.54;45.24;100216.09;5014290;28;20029;-80
2022/10/24 08:24:51;;;;;;;5.65;4.30;;;;;;;17.54;44.90;100210.75;5014404;28;20137;-80
2022/10/24 08:27:17;;;;;;;4.95;3.70;;;;;;;17.60;44.63;100201.91;5012625;28;20075;-78
2022/10/24 08:29:42;;;;;;;5.70;4.68;;;;;;;17.60;44.40;100196.56;5013166;28;20033;-80
2022/10/24 08:32:08;;;;;;;6.13;4.97;;;;;;;17.85;44.32;100214.66;5003218;28;20104;-80
2022/10/24 08:34:33;;;;;;;8.10;5.10;;;;;;;16.79;44.42;100044.72;5014146;28;20022;-78
2022/10/24 08:36:59;;;;;;;5.10;4.60;;;;;;;17.68;44.26;100158.16;5014769;28;20511;-81
2022/10/24 08:39:25;;;;;;;9.50;5.57;;;;;;;17.68;44.39;100142.13;5013783;28;20022;-78
2022/10/24 08:41:55;;;;;;;6.82;4.82;;;;;;;18.57;44.24;100265.19;5013698;28;20462;-80
2022/10/24 08:44:36;;;;;;;5.18;4.18;;;;;;;18.26;43.62;100209.78;5014756;28;20026;-79
2022/10/24 08:47:20;;;;;;;7.70;4.95;;;;;;;18.23;43.44;100202.19;5013131;28;20037;-78
2022/10/24 08:49:56;;;;;;;9.70;5.38;;;;;;;18.80;43.18;100258.56;5013157;28;20415;-79
2022/10/24 08:52:47;;;;;;;12.82;9.98;;;;;;;18.89;43.28;100258.09;5014118;28;20029;-79
2022/10/24 08:55:23;;;;;;;6.00;5.23;;;;;;;18.97;43.07;100255.16;5012390;28;20033;-80
2022/10/24 08:57:53;;;;;;;7.07;5.70;;;;;;;19.03;42.83;100248.97;5014317;28;20034;-78
2022/10/24 09:00:22;;;;;;;7.05;5.22;;;;;;;19.12;42.63;100241.47;5013997;28;20152;-80
2022/10/24 09:03:03;;;;;;;18.25;14.65;;;;;;;18.69;43.09;100161.91;5013922;28;20029;-79
2022/10/24 09:05:36;;;;;;;13.63;10.60;;;;;;;19.30;42.82;100233.53;5013716;28;20026;-78
2022/10/24 09:08:14;;;;;;;16.52;14.82;;;;;;;19.04;42.61;100183.69;5014059;28;20050;-80
2022/10/24 09:10:53;;;;;;;9.70;8.68;;;;;;;19.54;42.24;100233.78;4994010;28;20486;-80
2022/10/24 09:13:18;;;;;;;7.40;5.20;;;;;;;19.33;41.85;100189.44;4994043;28;20018;-79
2022/10/24 09:15:45;;;;;;;6.72;4.65;;;;;;;19.34;41.47;100170.50;4994657;28;20022;-79
2022/10/24 09:18:26;;;;;;;5.80;5.20;;;;;;;19.42;41.49;100190.81;5004940;28;20029;-79
2022/10/24 09:20:52;;;;;;;10.10;7.40;;;;;;;19.61;41.55;100202.41;5009111;28;20030;-79
2022/10/24 09:23:21;;;;;;;10.35;8.23;;;;;;;19.31;41.33;100143.31;5005470;28;20022;-78
2022/10/24 09:25:57;;;;;;;8.88;6.20;;;;;;;19.89;40.94;100188.53;5013334;28;20521;-80
2022/10/24 09:28:23;;;;;;;8.63;7.13;;;;;;;19.98;40.94;100190.69;5012385;28;20518;-79
2022/10/24 09:30:50;;;;;;;8.15;5.50;;;;;;;19.46;40.86;100095.59;5011045;28;20072;-79
2022/10/24 09:33:16;;;;;;;6.25;5.10;;;;;;;20.32;40.60;100209.91;5012256;28;20064;-79
2022/10/24 09:35:42;;;;;;;11.23;4.63;;;;;;;20.04;40.34;100164.03;5011299;28;20054;-79
2022/10/24 09:38:24;;;;;;;7.38;4.40;;;;;;;20.46;40.00;100205.22;5011286;28;20033;-79
2022/10/24 09:40:52;;;;;;;10.88;4.63;;;;;;;20.56;39.78;100243.88;5011358;28;20017;-79
2022/10/24 09:43:38;;;;;;;8.77;4.22;;;;;;;20.12;39.81;100119.00;5012097;28;20031;-79
2022/10/24 09:46:12;;;;;;;4.90;3.50;;;;;;;19.16;39.56;99958.13;5010809;28;20108;-79
2022/10/24 09:48:40;;;;;;;7.30;4.20;;;;;;;20.72;39.28;100202.16;5011704;28;20117;-79
2022/10/24 09:51:07;;;;;;;9.13;5.72;;;;;;;20.61;39.31;100171.56;5011683;28;20486;-78
2022/10/24 09:53:36;;;;;;;8.15;6.05;;;;;;;20.90;39.18;100198.63;5009337;28;20081;-79
2022/10/24 09:56:13;;;;;;;9.02;5.20;;;;;;;21.04;38.95;100191.19;5011473;28;20033;-79
2022/10/24 09:58:39;;;;;;;8.27;5.72;;;;;;;20.86;38.86;100149.97;5010730;28;20044;-79
2022/10/24 10:01:17;;;;;;;13.63;7.05;;;;;;;20.80;38.73;100128.56;5010659;28;20045;-79
2022/10/24 10:03:59;;;;;;;9.43;6.30;;;;;;;21.08;38.52;100152.91;5011395;28;20506;-79
2022/10/24 10:06:25;;;;;;;11.60;10.35;;;;;;;20.78;38.61;100107.31;5010441;28;20109;-80
2022/10/24 10:08:54;;;;;;;12.38;6.28;;;;;;;21.50;38.25;100172.47;5012264;28;20113;-79
2022/10/24 10:11:37;;;;;;;13.35;8.32;;;;;;;21.37;37.87;100132.41;5011835;28;20056;-80
2022/10/24 10:14:16;;;;;;;14.23;8.25;;;;;;;21.37;37.75;100107.41;5010533;28;20091;-79
2022/10/24 10:16:41;;;;;;;10.15;8.18;;;;;;;21.36;37.71;100092.34;5012489;28;20037;-79
2022/10/24 10:19:19;;;;;;;14.82;11.35;;;;;;;21.88;37.68;100157.72;5012719;28;20502;-80
2022/10/24 10:22:02;;;;;;;11.07;9.90;;;;;;;21.80;37.51;100126.66;5011290;28;20081;-80
2022/10/24 10:24:44;;;;;;;16.02;11.13;;;;;;;22.02;37.54;100148.34;5015351;28;20030;-80
2022/10/24 10:27:51;;;;;;;12.23;8.90;;;;;;;22.08;37.55;100135.84;5034534;28;20018;-78
2022/10/24 10:30:19;;;;;;;12.27;9.40;;;;;;;22.16;37.40;100130.91;5014318;28;20041;-80
2022/10/24 10:33:19;;;;;;;14.13;10.25;;;;;;;22.25;36.79;100130.50;4989473;28;20060;-79
2022/10/24 10:36:03;;;;;;;12.32;10.05;;;;;;;22.30;36.77;100125.25;5011705;28;20046;-79
2022/10/24 10:38:47;;;;;;;18.33;10.93;;;;;;;22.36;36.96;100130.50;5011418;28;20041;-80
2022/10/24 10:41:27;;;;;;;20.90;17.05;;;;;;;22.42;36.68;100123.34;5010737;28;20079;-79
2022/10/24 10:44:05;;;;;;;12.70;9.65;;;;;;;22.47;36.70;100116.16;5010664;28;20057;-80
2022/10/24 10:46:42;;;;;;;13.50;9.30;;;;;;;22.53;36.43;100106.31;5010648;28;20068;-80
2022/10/24 10:49:30;;;;;;;10.65;9.20;;;;;;;22.24;36.58;100067.00;5010744;28;20038;-80
2022/10/24 10:52:04;;;;;;;15.70;11.80;;;;;;;22.66;36.83;100107.88;5011288;28;20572;-80
2022/10/24 10:55:09;;;;;;;15.63;9.82;;;;;;;22.33;36.59;100052.97;5010355;28;20052;-79
2022/10/24 10:58:15;;;;;;;11.95;9.07;;;;;;;22.65;36.56;100084.72;5011806;28;20034;-80
2022/10/24 11:00:49;;;;;;;11.38;9.90;;;;;;;22.76;36.58;100102.66;5011556;28;20487;-79
2022/10/24 11:03:33;;;;;;;14.30;12.80;;;;;;;22.76;36.49;100097.28;5010945;28;20026;-80
2022/10/24 11:06:31;;;;;;;17.83;13.90;;;;;;;22.78;36.45;100087.91;5011611;28;20109;-79
2022/10/24 11:09:18;;;;;;;17.55;13.50;;;;;;;22.76;36.36;100083.81;5010979;28;20511;-80
2022/10/24 11:11:51;;;;;;;17.73;13.77;;;;;;;22.18;36.51;99983.53;5010230;28;20079;-79
2022/10/24 11:14:19;;;;;;;22.13;16.73;;;;;;;22.76;36.59;100081.13;5010315;28;20606;-80
2022/10/24 11:16:46;;;;;;;15.15;13.30;;;;;;;22.56;36.81;100065.47;5011355;28;20025;-80
2022/10/24 11:19:31;;;;;;;15.93;13.07;;;;;;;22.71;36.83;100079.16;5012007;28;20029;-79
2022/10/24 11:22:01;;;;;;;19.25;14.27;;;;;;;22.14;37.19;99984.28;5011625;28;20030;-79
2022/10/24 11:24:30;;;;;;;17.88;13.57;;;;;;;22.28;36.97;100031.31;5010479;28;20112;-79
2022/10/24 11:27:15;;;;;;;15.55;13.20;;;;;;;22.43;36.97;100030.78;5011145;28;20025;-79
2022/10/24 11:29:52;;;;;;;25.25;22.02;;;;;;;22.31;37.21;100030.88;5011398;28;20101;-80
2022/10/24 11:32:33;;;;;;;32.97;27.60;;;;;;;21.74;37.33;99922.50;5010270;28;20092;-80